createdAt,value
2019-04-05T00:01:18.913Z,8.57
2019-04-05T00:03:51.942Z,9.37
2019-04-05T00:06:25.202Z,8.60
2019-04-05T00:08:58.338Z,9.60
2019-04-05T00:11:31.165Z,9.20
2019-04-05T00:14:04.070Z,9.23
2019-04-05T00:16:36.905Z,9.47
2019-04-05T00:19:11.097Z,8.83
2019-04-05T00:21:44.196Z,8.90
2019-04-05T00:24:17.111Z,9.27
2019-04-05T00:26:49.906Z,8.90
2019-04-05T00:29:22.703Z,8.80
2019-04-05T00:31:55.682Z,8.50
2019-04-05T00:34:28.573Z,8.83
2019-04-05T00:37:01.383Z,9.30
2019-04-05T00:39:34.512Z,9.37
2019-04-05T00:42:07.342Z,9.03
2019-04-05T00:44:41.347Z,9.57
2019-04-05T00:47:30.933Z,9.80
2019-04-05T00:50:04.402Z,10.20
2019-04-05T00:52:37.443Z,9.67
2019-04-05T00:55:11.158Z,9.57
2019-04-05T00:57:44.136Z,9.30
2019-04-05T01:00:17.882Z,9.93
2019-04-05T01:02:50.758Z,9.53
2019-04-05T01:05:22.953Z,9.37
2019-04-05T01:07:55.212Z,8.90
2019-04-05T01:10:27.216Z,9.57
2019-04-05T01:13:00.009Z,9.37
2019-04-05T01:15:40.807Z,9.77
2019-04-05T01:18:06.061Z,10.33
2019-04-05T01:20:40.822Z,9.33
2019-04-05T01:23:14.916Z,10.20
2019-04-05T01:25:48.410Z,10.37
2019-04-05T01:28:20.977Z,10.10
2019-04-05T01:30:52.969Z,9.53
2019-04-05T01:33:25.439Z,9.63
2019-04-05T01:35:57.414Z,9.87
2019-04-05T01:38:29.778Z,8.73
2019-04-05T01:41:02.485Z,10.13
2019-04-05T01:43:34.501Z,9.97
2019-04-05T01:46:06.918Z,9.00
2019-04-05T01:48:39.183Z,10.10
2019-04-05T01:51:11.338Z,10.93
2019-04-05T01:53:44.010Z,10.90
2019-04-05T01:56:16.212Z,11.60
2019-04-05T01:58:48.495Z,10.83
2019-04-05T02:01:21.076Z,10.43
2019-04-05T02:03:53.309Z,10.13
2019-04-05T02:06:26.060Z,10.73
2019-04-05T02:08:58.237Z,10.37
2019-04-05T02:11:30.520Z,10.17
2019-04-05T02:14:02.770Z,10.80
2019-04-05T02:16:35.258Z,11.17
2019-04-05T02:19:07.485Z,11.50
2019-04-05T02:21:39.844Z,11.27
2019-04-05T02:24:12.221Z,10.30
2019-04-05T02:26:44.674Z,10.70
2019-04-05T02:29:16.942Z,10.67
2019-04-05T02:31:49.067Z,9.70
2019-04-05T02:34:21.446Z,10.17
2019-04-05T02:36:53.466Z,9.57
2019-04-05T02:39:25.532Z,9.60
2019-04-05T02:41:59.434Z,9.97
2019-04-05T02:44:34.470Z,9.67
2019-04-05T02:47:07.562Z,10.57
2019-04-05T02:49:41.723Z,8.90
2019-04-05T02:52:17.127Z,10.77
2019-04-05T02:54:51.445Z,10.57
2019-04-05T02:57:25.271Z,10.10
2019-04-05T02:59:58.235Z,11.47
2019-04-05T03:02:32.165Z,10.37
2019-04-05T03:05:04.408Z,9.03
2019-04-05T03:07:36.704Z,10.00
2019-04-05T03:10:09.405Z,10.00
2019-04-05T03:12:41.918Z,9.60
2019-04-05T03:15:14.751Z,9.63
2019-04-05T03:17:47.274Z,9.60
2019-04-05T03:20:19.790Z,9.17
2019-04-05T03:22:52.064Z,9.37
2019-04-05T03:25:24.494Z,10.33
2019-04-05T03:27:57.100Z,9.60
2019-04-05T03:30:29.592Z,10.47
2019-04-05T03:33:02.261Z,10.60
2019-04-05T03:35:34.520Z,10.60
2019-04-05T03:38:07.555Z,11.40
2019-04-05T03:40:40.509Z,11.00
2019-04-05T03:43:13.386Z,10.90
2019-04-05T03:45:46.507Z,11.10
2019-04-05T03:48:19.105Z,10.33
2019-04-05T03:50:51.577Z,10.30
2019-04-05T03:53:24.436Z,8.97
2019-04-05T03:55:57.447Z,9.80
2019-04-05T03:58:30.479Z,10.43
2019-04-05T04:01:03.476Z,11.33
2019-04-05T04:03:36.352Z,11.23
2019-04-05T04:06:08.885Z,12.20
2019-04-05T04:08:42.259Z,14.17
2019-04-05T04:11:14.511Z,14.63
2019-04-05T04:13:47.352Z,11.60
2019-04-05T04:16:20.193Z,11.77
2019-04-05T04:18:53.035Z,11.07
2019-04-05T04:21:40.774Z,11.03
2019-04-05T04:24:13.332Z,11.67
2019-04-05T04:26:46.270Z,10.97
2019-04-05T04:29:19.917Z,11.53
2019-04-05T04:31:53.141Z,14.50
2019-04-05T04:34:25.557Z,19.83
2019-04-05T04:36:57.855Z,22.40
2019-04-05T04:39:30.506Z,21.27
2019-04-05T04:42:04.978Z,17.63
2019-04-05T04:44:37.652Z,14.37
2019-04-05T04:47:10.153Z,12.27
2019-04-05T04:49:43.090Z,11.87
2019-04-05T04:52:16.589Z,10.77
2019-04-05T04:54:48.984Z,11.50
2019-04-05T04:57:21.433Z,11.30
2019-04-05T04:59:54.478Z,11.90
2019-04-05T05:02:27.409Z,11.23
2019-04-05T05:05:00.364Z,11.93
2019-04-05T05:07:33.150Z,12.60
2019-04-05T05:10:06.666Z,11.87
2019-04-05T05:12:39.647Z,14.40
2019-04-05T05:15:13.030Z,14.47
2019-04-05T05:17:57.996Z,11.90
2019-04-05T05:20:21.034Z,12.77
2019-04-05T05:22:54.303Z,17.23
2019-04-05T05:25:27.173Z,16.20
2019-04-05T05:28:00.440Z,21.77
2019-04-05T05:30:33.157Z,17.03
2019-04-05T05:33:06.157Z,17.20
2019-04-05T05:35:38.944Z,15.90
2019-04-05T05:38:11.579Z,17.53
2019-04-05T05:40:44.111Z,17.03
2019-04-05T05:43:17.030Z,15.67
2019-04-05T05:45:49.458Z,17.40
2019-04-05T05:48:22.234Z,17.43
2019-04-05T05:50:55.550Z,17.03
2019-04-05T05:53:29.064Z,16.93
2019-04-05T05:56:01.496Z,19.40
2019-04-05T05:58:33.864Z,18.47
2019-04-05T06:01:07.203Z,29.93
2019-04-05T06:03:39.598Z,25.93
2019-04-05T06:06:11.878Z,17.40
2019-04-05T06:08:44.389Z,43.80
2019-04-05T06:11:16.940Z,17.53
2019-04-05T06:13:49.609Z,21.17
2019-04-05T06:16:21.990Z,34.13
2019-04-05T06:18:54.301Z,23.33
2019-04-05T06:21:26.897Z,24.30
2019-04-05T06:23:59.517Z,25.67
2019-04-05T06:26:31.907Z,19.43
2019-04-05T06:29:04.571Z,24.97
2019-04-05T06:31:39.013Z,21.70
2019-04-05T06:34:11.655Z,17.33
2019-04-05T06:36:44.287Z,18.37
2019-04-05T06:39:16.854Z,18.77
2019-04-05T06:41:49.136Z,19.30
2019-04-05T06:44:21.920Z,17.13
2019-04-05T06:46:54.323Z,18.70
2019-04-05T06:49:26.710Z,16.90
2019-04-05T06:51:59.019Z,17.63
2019-04-05T06:54:33.687Z,16.73
2019-04-05T06:57:06.273Z,16.07
2019-04-05T06:59:38.681Z,15.47
2019-04-05T07:02:10.980Z,21.43
2019-04-05T07:04:43.463Z,16.50
2019-04-05T07:07:17.862Z,16.10
2019-04-05T07:09:49.675Z,16.60
2019-04-05T07:12:22.485Z,15.70
2019-04-05T07:14:56.313Z,15.13
2019-04-05T07:17:29.239Z,22.87
2019-04-05T07:20:01.638Z,17.90
2019-04-05T07:22:39.165Z,18.30
2019-04-05T07:25:08.587Z,17.57
2019-04-05T07:27:41.118Z,16.40
2019-04-05T07:30:14.459Z,16.83
2019-04-05T07:32:47.005Z,16.23
2019-04-05T07:35:32.665Z,17.50
2019-04-05T07:37:53.608Z,17.17
2019-04-05T07:40:26.473Z,17.57
2019-04-05T07:42:59.118Z,17.83
2019-04-05T07:45:31.526Z,18.77
2019-04-05T07:48:03.982Z,22.50
2019-04-05T07:50:39.196Z,17.90
2019-04-05T07:53:11.881Z,16.60
2019-04-05T07:55:47.480Z,17.93
2019-04-05T07:58:20.667Z,18.13
2019-04-05T08:00:56.198Z,19.40
2019-04-05T08:03:28.909Z,17.33
2019-04-05T08:06:01.726Z,17.07
2019-04-05T08:09:13.116Z,17.27
2019-04-05T08:11:47.880Z,16.97
2019-04-05T08:14:22.581Z,16.93
2019-04-05T08:16:55.384Z,16.53
2019-04-05T08:19:28.260Z,16.63
2019-04-05T08:22:00.986Z,17.37
2019-04-05T08:24:33.607Z,16.77
2019-04-05T08:27:06.206Z,15.20
2019-04-05T08:32:39.568Z,16.93
2019-04-05T08:35:13.256Z,16.70
2019-04-05T08:37:46.455Z,15.53
2019-04-05T08:40:19.832Z,16.17
2019-04-05T08:42:53.320Z,16.63
2019-04-05T08:45:27.053Z,15.50
2019-04-05T08:48:00.383Z,15.83
2019-04-05T08:50:33.632Z,15.70
2019-04-05T08:53:07.655Z,15.17
2019-04-05T08:55:40.953Z,15.83
2019-04-05T08:58:14.491Z,15.60
2019-04-05T09:00:48.039Z,15.30
2019-04-05T09:03:21.531Z,15.87
2019-04-05T09:05:55.244Z,15.33
2019-04-05T09:08:32.108Z,14.80
2019-04-05T09:11:06.059Z,14.97
2019-04-05T09:13:39.332Z,15.63
2019-04-05T09:16:13.092Z,15.23
2019-04-05T09:18:49.393Z,15.23
2019-04-05T09:21:24.124Z,16.07
2019-04-05T09:23:59.329Z,14.70
2019-04-05T09:26:32.533Z,14.70
2019-04-05T09:29:05.871Z,14.37
2019-04-05T09:31:39.077Z,15.10
2019-04-05T09:34:12.443Z,14.27
2019-04-05T09:36:45.995Z,14.60
2019-04-05T09:39:19.572Z,14.67
2019-04-05T09:41:52.921Z,15.17
2019-04-05T09:44:26.037Z,14.67
2019-04-05T09:47:00.666Z,14.20
2019-04-05T09:49:37.011Z,14.20
2019-04-05T09:52:08.736Z,14.60
2019-04-05T09:54:42.133Z,13.77
2019-04-05T09:57:15.803Z,14.03
2019-04-05T09:59:49.148Z,12.60
2019-04-05T10:02:22.796Z,13.13
2019-04-05T10:04:56.205Z,13.13
2019-04-05T10:07:29.549Z,11.23
2019-04-05T10:10:02.669Z,11.93
2019-04-05T10:12:35.605Z,11.03
2019-04-05T10:15:26.987Z,11.03
2019-04-05T10:18:17.880Z,11.33
2019-04-05T10:21:08.767Z,10.93
2019-04-05T10:23:59.722Z,11.27
2019-04-05T10:26:50.795Z,11.70
2019-04-05T10:29:42.090Z,11.10
2019-04-05T10:32:33.290Z,10.93
2019-04-05T10:35:24.374Z,14.97
2019-04-05T10:38:20.717Z,19.13
2019-04-05T10:41:11.635Z,14.13
2019-04-05T10:44:02.846Z,30.93
2019-04-05T10:46:54.076Z,15.17
2019-04-05T10:49:45.177Z,16.63
2019-04-05T10:52:36.210Z,13.80
2019-04-05T10:55:27.490Z,11.50
2019-04-05T10:58:18.626Z,11.37
2019-04-05T11:01:09.875Z,10.63
2019-04-05T11:04:01.315Z,11.07
2019-04-05T11:06:52.883Z,10.27
2019-04-05T11:09:44.075Z,10.30
2019-04-05T11:12:35.437Z,10.07
2019-04-05T11:15:26.478Z,10.73
2019-04-05T11:18:17.429Z,15.80
2019-04-05T11:21:08.497Z,11.87
2019-04-05T11:24:00.183Z,12.47
2019-04-05T11:26:33.395Z,11.70
2019-04-05T11:29:06.839Z,14.50
2019-04-05T11:31:40.624Z,10.77
2019-04-05T11:34:14.698Z,10.00
2019-04-05T11:36:48.490Z,11.60
2019-04-05T11:39:22.726Z,11.27
2019-04-05T11:41:59.579Z,12.33
2019-04-05T11:44:34.895Z,11.43
2019-04-05T11:47:08.285Z,11.10
2019-04-05T11:49:46.054Z,11.67
2019-04-05T11:52:19.752Z,13.03
2019-04-05T11:54:52.917Z,13.07
2019-04-05T11:57:26.334Z,12.73
2019-04-05T11:59:59.348Z,13.87
2019-04-05T12:02:38.039Z,13.13
2019-04-05T12:05:13.838Z,14.87
2019-04-05T12:07:47.339Z,15.90
2019-04-05T12:10:21.224Z,12.50
2019-04-05T12:12:54.556Z,14.20
2019-04-05T12:15:28.545Z,11.43
2019-04-05T12:18:04.242Z,15.60
2019-04-05T12:20:47.903Z,11.70
2019-04-05T12:23:12.028Z,12.00
2019-04-05T12:25:45.259Z,12.10
2019-04-05T12:28:18.416Z,12.67
2019-04-05T12:30:51.883Z,10.27
2019-04-05T12:33:25.064Z,10.97
2019-04-05T12:35:58.642Z,10.07
2019-04-05T12:38:50.051Z,10.77
2019-04-05T12:41:23.746Z,11.70
2019-04-05T12:43:57.152Z,11.70
2019-04-05T12:46:30.815Z,9.80
2019-04-05T12:49:04.455Z,11.87
2019-04-05T12:51:38.077Z,13.83
2019-04-05T12:54:11.643Z,12.40
2019-04-05T12:56:45.083Z,13.90
2019-04-05T12:59:25.182Z,16.67
2019-04-05T13:01:59.539Z,16.10
2019-04-05T13:04:32.143Z,14.17
2019-04-05T13:07:05.592Z,16.33
2019-04-05T13:09:39.217Z,18.73
2019-04-05T13:12:12.462Z,20.53
2019-04-05T13:14:45.883Z,18.67
2019-04-05T13:17:19.112Z,20.03
2019-04-05T13:19:52.518Z,17.80
2019-04-05T13:22:25.906Z,16.30
2019-04-05T13:24:59.886Z,15.73
2019-04-05T13:27:33.291Z,18.57
2019-04-05T13:30:07.185Z,15.20
2019-04-05T13:32:40.534Z,19.07
2019-04-05T13:35:16.888Z,14.57
2019-04-05T13:37:50.658Z,21.93
2019-04-05T13:40:25.099Z,16.20
2019-04-05T13:43:01.387Z,15.23
2019-04-05T13:45:34.307Z,18.07
2019-04-05T13:48:08.960Z,18.73
2019-04-05T13:50:43.252Z,20.73
2019-04-05T13:53:16.886Z,17.73
2019-04-05T13:55:50.110Z,15.43
2019-04-05T13:58:26.162Z,14.40
2019-04-05T14:00:58.139Z,21.50
2019-04-05T14:03:31.352Z,17.80
2019-04-05T14:06:05.088Z,19.10
2019-04-05T14:08:41.161Z,22.77
2019-04-05T14:11:13.369Z,15.37
2019-04-05T14:13:46.794Z,20.53
2019-04-05T14:16:23.401Z,19.67
2019-04-05T14:18:56.558Z,15.40
2019-04-05T14:21:39.766Z,14.00
2019-04-05T14:24:04.608Z,19.83
2019-04-05T14:26:39.705Z,14.50
2019-04-05T14:29:12.740Z,15.83
2019-04-05T14:31:45.990Z,15.27
2019-04-05T14:34:19.465Z,14.20
2019-04-05T14:36:52.972Z,16.40
2019-04-05T14:39:26.401Z,17.87
2019-04-05T14:42:09.491Z,25.03
2019-04-05T14:44:34.915Z,17.53
2019-04-05T14:47:08.964Z,17.87
2019-04-05T14:49:42.177Z,23.40
2019-04-05T14:52:15.731Z,16.73
2019-04-05T14:54:49.318Z,16.63
2019-04-05T14:57:22.695Z,14.93
2019-04-05T14:59:56.355Z,15.60
2019-04-05T15:02:30.150Z,17.83
2019-04-05T15:05:04.719Z,14.33
2019-04-05T15:07:41.685Z,14.93
2019-04-05T15:10:15.242Z,18.67
2019-04-05T15:12:49.190Z,15.77
2019-04-05T15:15:22.941Z,14.10
2019-04-05T15:17:56.454Z,12.77
2019-04-05T15:20:29.594Z,13.93
2019-04-05T15:23:02.775Z,13.03
2019-04-05T15:25:36.682Z,14.33
2019-04-05T15:28:09.805Z,14.67
2019-04-05T15:30:43.200Z,11.73
2019-04-05T15:33:16.429Z,15.50
2019-04-05T15:35:50.166Z,10.80
2019-04-05T15:38:23.871Z,13.33
2019-04-05T15:40:57.601Z,17.53
2019-04-05T15:43:30.699Z,13.40
2019-04-05T15:46:03.957Z,11.73
2019-04-05T15:48:37.487Z,16.27
2019-04-05T15:51:11.443Z,11.20
2019-04-05T15:53:44.522Z,10.07
2019-04-05T15:56:17.591Z,13.33
2019-04-05T15:58:52.419Z,11.17
2019-04-05T16:01:36.977Z,11.73
2019-04-05T16:04:10.108Z,13.90
2019-04-05T16:06:43.859Z,17.67
2019-04-05T16:09:18.949Z,18.43
2019-04-05T16:11:52.120Z,13.10
2019-04-05T16:14:25.566Z,13.43
2019-04-05T16:16:58.631Z,17.33
2019-04-05T16:19:31.818Z,21.93
2019-04-05T16:22:05.116Z,13.60
2019-04-05T16:24:38.871Z,12.80
2019-04-05T16:27:12.271Z,14.77
2019-04-05T16:29:45.853Z,18.83
2019-04-05T16:32:19.012Z,16.27
2019-04-05T16:34:52.070Z,14.90
2019-04-05T16:37:25.088Z,15.63
2019-04-05T16:39:58.617Z,13.20
2019-04-05T16:42:33.804Z,13.87
2019-04-05T16:45:11.546Z,14.73
2019-04-05T16:47:45.208Z,18.80
2019-04-05T16:50:21.380Z,19.63
2019-04-05T16:52:54.132Z,13.67
2019-04-05T16:55:27.567Z,10.67
2019-04-05T16:58:00.926Z,11.10
2019-04-05T17:00:34.683Z,10.33
2019-04-05T17:03:08.226Z,17.77
2019-04-05T17:05:42.199Z,13.27
2019-04-05T17:08:15.696Z,13.53
2019-04-05T17:10:49.489Z,12.77
2019-04-05T17:13:25.826Z,11.60
2019-04-05T17:16:00.867Z,11.50
2019-04-05T17:18:36.603Z,11.03
2019-04-05T17:21:10.558Z,11.70
2019-04-05T17:23:47.280Z,11.50
2019-04-05T17:26:20.868Z,18.03
2019-04-05T17:28:57.722Z,13.37
2019-04-05T17:31:30.878Z,12.00
2019-04-05T17:34:05.859Z,16.47
2019-04-05T17:36:39.731Z,15.63
2019-04-05T17:39:13.289Z,15.03
2019-04-05T17:41:46.601Z,12.87
2019-04-05T17:44:20.099Z,12.73
2019-04-05T17:46:55.995Z,13.00
2019-04-05T17:49:29.341Z,22.10
2019-04-05T17:52:03.198Z,18.17
2019-04-05T17:54:37.195Z,15.90
2019-04-05T17:57:11.041Z,18.77
2019-04-05T17:59:44.716Z,21.87
2019-04-05T18:02:18.431Z,19.57
2019-04-05T18:04:56.580Z,14.47
2019-04-05T18:07:34.188Z,12.40
2019-04-05T18:10:10.479Z,16.53
2019-04-05T18:13:07.901Z,15.27
2019-04-05T18:15:52.369Z,14.40
2019-04-05T18:18:27.383Z,15.30
2019-04-05T18:21:01.569Z,15.70
2019-04-05T18:23:39.473Z,16.00
2019-04-05T18:26:19.257Z,17.07
2019-04-05T18:28:59.225Z,18.60
2019-04-05T18:31:35.108Z,16.97
2019-04-05T18:34:11.377Z,15.63
2019-04-05T18:36:49.725Z,16.23
2019-04-05T18:39:28.160Z,17.90
2019-04-05T18:42:06.795Z,17.33
2019-04-05T18:44:45.353Z,17.30
2019-04-05T18:47:30.048Z,17.40
2019-04-05T18:50:17.150Z,19.77
2019-04-05T18:52:54.571Z,18.90
2019-04-05T18:55:33.939Z,18.50
2019-04-05T18:58:12.129Z,21.37
2019-04-05T19:00:51.834Z,23.17
2019-04-05T19:03:31.609Z,23.03
2019-04-05T19:06:05.285Z,26.27
2019-04-05T19:08:42.336Z,22.97
2019-04-05T19:11:20.958Z,20.93
2019-04-05T19:14:01.702Z,20.70
2019-04-05T19:16:38.950Z,21.57
2019-04-05T19:19:21.546Z,20.13
2019-04-05T19:21:58.125Z,19.13
2019-04-05T19:24:34.525Z,19.23
2019-04-05T19:27:23.351Z,17.80
2019-04-05T19:48:45.000Z,16.33
2019-04-05T19:51:18.860Z,15.63
2019-04-05T19:54:01.240Z,15.77
2019-04-05T19:56:34.193Z,16.53
2019-04-05T19:59:11.800Z,18.37
2019-04-05T20:01:52.211Z,18.67
2019-04-05T20:04:35.291Z,16.50
2019-04-05T20:07:10.636Z,18.03
2019-04-05T20:09:51.367Z,16.40
2019-04-05T20:12:28.013Z,18.33
2019-04-05T20:15:06.760Z,17.20
2019-04-05T20:17:46.596Z,17.87
2019-04-05T20:20:24.907Z,18.17
2019-04-05T20:23:05.385Z,18.33
2019-04-05T20:25:45.403Z,17.83
2019-04-05T20:28:23.625Z,17.57
2019-04-05T20:31:02.302Z,19.13
2019-04-05T20:33:43.974Z,18.00
2019-04-05T20:36:19.941Z,19.37
2019-04-05T20:39:00.415Z,19.93
2019-04-05T20:41:39.478Z,18.17
2019-04-05T20:44:32.625Z,17.53
2019-04-05T20:47:06.423Z,16.23
2019-04-05T20:49:41.443Z,15.90
2019-04-05T20:52:14.654Z,16.50
2019-04-05T20:54:49.599Z,16.70
2019-04-05T20:57:26.481Z,18.33
2019-04-05T21:00:00.193Z,16.50
2019-04-05T21:02:33.461Z,20.03
2019-04-05T21:05:07.373Z,15.93
2019-04-05T21:07:40.561Z,16.43
2019-04-05T21:10:14.532Z,16.07
2019-04-05T21:12:47.795Z,15.23
2019-04-05T21:15:21.247Z,15.57
2019-04-05T21:17:54.723Z,14.20
2019-04-05T21:20:28.314Z,15.03
2019-04-05T21:23:01.638Z,15.80
2019-04-05T21:25:35.188Z,13.80
2019-04-05T21:28:08.956Z,13.43
2019-04-05T21:30:42.651Z,13.40
2019-04-05T21:33:17.035Z,14.10
2019-04-05T21:35:52.518Z,13.03
2019-04-05T21:38:25.744Z,13.67
2019-04-05T21:40:59.384Z,13.53
2019-04-05T21:43:33.480Z,15.40
2019-04-05T21:46:07.123Z,14.63
2019-04-05T21:48:40.239Z,14.07
2019-04-05T21:51:13.641Z,13.13
2019-04-05T21:53:47.511Z,13.57
2019-04-05T21:56:20.933Z,13.87
2019-04-05T21:58:54.441Z,13.13
2019-04-05T22:01:27.811Z,12.87
2019-04-05T22:04:01.304Z,13.57
2019-04-05T22:06:36.391Z,13.70
2019-04-05T22:09:11.587Z,13.83
2019-04-05T22:11:44.506Z,12.97
2019-04-05T22:14:17.845Z,13.53
2019-04-05T22:16:51.045Z,12.37
2019-04-05T22:19:24.239Z,13.13
2019-04-05T22:21:57.984Z,13.73
2019-04-05T22:24:31.221Z,13.63
2019-04-05T22:27:04.434Z,13.77
2019-04-05T22:29:37.459Z,13.33
2019-04-05T22:32:11.621Z,12.80
2019-04-05T22:34:46.441Z,13.47
2019-04-05T22:37:21.237Z,12.90
2019-04-05T22:39:54.367Z,13.87
2019-04-05T22:42:27.567Z,14.43
2019-04-05T22:45:01.186Z,15.40
2019-04-05T22:47:41.012Z,14.57
2019-04-05T22:50:18.032Z,16.60
2019-04-05T22:52:54.843Z,16.40
2019-04-05T22:55:44.673Z,16.17
2019-04-05T22:58:19.768Z,15.33
2019-04-05T23:00:52.845Z,15.30
2019-04-05T23:03:32.638Z,15.87
2019-04-05T23:06:09.359Z,14.97
2019-04-05T23:08:45.370Z,15.83
2019-04-05T23:11:21.844Z,16.30
2019-04-05T23:13:57.944Z,17.07
2019-04-05T23:16:35.917Z,18.43
2019-04-05T23:19:15.321Z,16.90
2019-04-05T23:21:54.867Z,17.37
2019-04-05T23:24:34.713Z,17.47
2019-04-05T23:27:09.836Z,16.33
2019-04-05T23:29:49.768Z,16.47
2019-04-05T23:32:29.327Z,17.50
2019-04-05T23:35:08.066Z,17.43
2019-04-05T23:37:45.918Z,18.80
2019-04-05T23:40:39.466Z,19.63
2019-04-05T23:43:19.184Z,19.50
2019-04-05T23:45:56.455Z,18.87
2019-04-05T23:48:30.726Z,19.53
2019-04-05T23:51:10.469Z,18.57
2019-04-05T23:53:47.104Z,19.50
2019-04-05T23:56:26.057Z,19.13
2019-04-05T23:59:01.989Z,18.33
